sensor_id;sensor_type;location;lat;lon;timestamp;temperature;humidity
52973;DHT22;38837;48.916;2.336;2024-03-06T00:01:41;24.80;32.50
52973;DHT22;38837;48.916;2.336;2024-03-06T00:03:42;24.80;32.40
52973;DHT22;38837;48.916;2.336;2024-03-06T00:05:44;24.80;32.40
52973;DHT22;38837;48.916;2.336;2024-03-06T00:07:46;24.70;32.50
52973;DHT22;38837;48.916;2.336;2024-03-06T00:09:48;24.60;32.50
52973;DHT22;38837;48.916;2.336;2024-03-06T00:11:50;24.50;32.60
52973;DHT22;38837;48.916;2.336;2024-03-06T00:13:54;24.50;32.60
52973;DHT22;38837;48.916;2.336;2024-03-06T00:15:56;24.50;32.70
52973;DHT22;38837;48.916;2.336;2024-03-06T00:17:58;24.50;32.80
52973;DHT22;38837;48.916;2.336;2024-03-06T00:20:00;24.60;32.70
52973;DHT22;38837;48.916;2.336;2024-03-06T00:22:02;24.60;32.60
52973;DHT22;38837;48.916;2.336;2024-03-06T00:24:05;24.70;32.60
52973;DHT22;38837;48.916;2.336;2024-03-06T00:26:07;24.80;32.60
52973;DHT22;38837;48.916;2.336;2024-03-06T00:28:09;24.70;32.50
52973;DHT22;38837;48.916;2.336;2024-03-06T00:30:11;24.70;32.50
52973;DHT22;38837;48.916;2.336;2024-03-06T00:32:13;24.60;32.60
52973;DHT22;38837;48.916;2.336;2024-03-06T00:34:15;24.60;32.70
52973;DHT22;38837;48.916;2.336;2024-03-06T00:36:17;24.50;32.80
52973;DHT22;38837;48.916;2.336;2024-03-06T00:38:19;24.50;32.70
52973;DHT22;38837;48.916;2.336;2024-03-06T00:40:21;24.50;32.80
52973;DHT22;38837;48.916;2.336;2024-03-06T00:42:23;24.50;32.80
52973;DHT22;38837;48.916;2.336;2024-03-06T00:44:25;24.50;32.80
52973;DHT22;38837;48.916;2.336;2024-03-06T00:46:27;24.60;32.70
52973;DHT22;38837;48.916;2.336;2024-03-06T00:48:29;24.70;32.60
52973;DHT22;38837;48.916;2.336;2024-03-06T00:50:31;24.70;32.50
52973;DHT22;38837;48.916;2.336;2024-03-06T00:52:33;24.70;32.50
52973;DHT22;38837;48.916;2.336;2024-03-06T00:54:35;24.70;32.60
52973;DHT22;38837;48.916;2.336;2024-03-06T00:56:42;24.50;32.60
52973;DHT22;38837;48.916;2.336;2024-03-06T00:58:44;24.50;32.70
52973;DHT22;38837;48.916;2.336;2024-03-06T01:00:46;24.50;32.70
52973;DHT22;38837;48.916;2.336;2024-03-06T01:02:48;24.50;32.80
52973;DHT22;38837;48.916;2.336;2024-03-06T01:04:50;24.50;32.80
52973;DHT22;38837;48.916;2.336;2024-03-06T01:06:52;24.50;32.80
52973;DHT22;38837;48.916;2.336;2024-03-06T01:08:59;24.60;32.80
52973;DHT22;38837;48.916;2.336;2024-03-06T01:11:00;24.60;32.70
52973;DHT22;38837;48.916;2.336;2024-03-06T01:13:03;24.70;32.70
52973;DHT22;38837;48.916;2.336;2024-03-06T01:15:05;24.70;32.60
52973;DHT22;38837;48.916;2.336;2024-03-06T01:17:08;24.70;32.60
52973;DHT22;38837;48.916;2.336;2024-03-06T01:19:10;24.70;32.60
52973;DHT22;38837;48.916;2.336;2024-03-06T01:21:11;24.60;32.70
52973;DHT22;38837;48.916;2.336;2024-03-06T01:23:13;24.50;32.70
52973;DHT22;38837;48.916;2.336;2024-03-06T01:25:15;24.50;32.80
52973;DHT22;38837;48.916;2.336;2024-03-06T01:27:17;24.50;32.80
52973;DHT22;38837;48.916;2.336;2024-03-06T01:29:19;24.50;32.90
52973;DHT22;38837;48.916;2.336;2024-03-06T01:31:21;24.50;32.90
52973;DHT22;38837;48.916;2.336;2024-03-06T01:33:23;24.60;32.80
52973;DHT22;38837;48.916;2.336;2024-03-06T01:35:25;24.70;32.80
52973;DHT22;38837;48.916;2.336;2024-03-06T01:37:27;24.70;32.60
52973;DHT22;38837;48.916;2.336;2024-03-06T01:39:29;24.70;32.60
52973;DHT22;38837;48.916;2.336;2024-03-06T01:41:31;24.70;32.60
52973;DHT22;38837;48.916;2.336;2024-03-06T01:43:37;24.70;32.60
52973;DHT22;38837;48.916;2.336;2024-03-06T01:45:40;24.60;32.70
52973;DHT22;38837;48.916;2.336;2024-03-06T01:47:42;24.50;32.80
52973;DHT22;38837;48.916;2.336;2024-03-06T01:49:44;24.50;32.80
52973;DHT22;38837;48.916;2.336;2024-03-06T01:51:50;24.50;32.90
52973;DHT22;38837;48.916;2.336;2024-03-06T01:53:53;24.50;32.90
52973;DHT22;38837;48.916;2.336;2024-03-06T01:55:55;24.60;32.90
52973;DHT22;38837;48.916;2.336;2024-03-06T01:57:58;24.60;32.90
52973;DHT22;38837;48.916;2.336;2024-03-06T02:00:02;24.70;32.70
52973;DHT22;38837;48.916;2.336;2024-03-06T02:02:05;24.70;32.60
52973;DHT22;38837;48.916;2.336;2024-03-06T02:04:09;24.70;32.60
52973;DHT22;38837;48.916;2.336;2024-03-06T02:06:14;24.70;32.60
52973;DHT22;38837;48.916;2.336;2024-03-06T02:08:21;24.60;32.60
52973;DHT22;38837;48.916;2.336;2024-03-06T02:10:23;24.50;32.70
52973;DHT22;38837;48.916;2.336;2024-03-06T02:12:25;24.50;32.80
52973;DHT22;38837;48.916;2.336;2024-03-06T02:14:29;24.50;32.90
52973;DHT22;38837;48.916;2.336;2024-03-06T02:16:31;24.50;32.90
52973;DHT22;38837;48.916;2.336;2024-03-06T02:18:32;24.60;32.90
52973;DHT22;38837;48.916;2.336;2024-03-06T02:20:34;24.60;32.90
52973;DHT22;38837;48.916;2.336;2024-03-06T02:22:36;24.60;32.80
52973;DHT22;38837;48.916;2.336;2024-03-06T02:24:44;24.70;32.70
52973;DHT22;38837;48.916;2.336;2024-03-06T02:26:47;24.70;32.60
52973;DHT22;38837;48.916;2.336;2024-03-06T02:28:49;24.70;32.60
52973;DHT22;38837;48.916;2.336;2024-03-06T02:30:51;24.70;32.60
52973;DHT22;38837;48.916;2.336;2024-03-06T02:32:53;24.60;32.60
52973;DHT22;38837;48.916;2.336;2024-03-06T02:34:55;24.60;32.70
52973;DHT22;38837;48.916;2.336;2024-03-06T02:36:57;24.50;32.70
52973;DHT22;38837;48.916;2.336;2024-03-06T02:38:59;24.50;32.80
52973;DHT22;38837;48.916;2.336;2024-03-06T02:41:01;24.50;32.90
52973;DHT22;38837;48.916;2.336;2024-03-06T02:43:03;24.50;33.50
52973;DHT22;38837;48.916;2.336;2024-03-06T02:45:06;24.50;32.90
52973;DHT22;38837;48.916;2.336;2024-03-06T02:47:12;24.60;32.80
52973;DHT22;38837;48.916;2.336;2024-03-06T02:49:14;24.70;32.70
52973;DHT22;38837;48.916;2.336;2024-03-06T02:51:19;24.70;32.60
52973;DHT22;38837;48.916;2.336;2024-03-06T02:53:22;24.60;32.60
52973;DHT22;38837;48.916;2.336;2024-03-06T02:55:23;24.60;32.60
52973;DHT22;38837;48.916;2.336;2024-03-06T02:57:29;24.60;32.80
52973;DHT22;38837;48.916;2.336;2024-03-06T02:59:31;24.60;32.80
52973;DHT22;38837;48.916;2.336;2024-03-06T03:01:33;24.50;32.80
52973;DHT22;38837;48.916;2.336;2024-03-06T03:03:36;24.50;32.90
52973;DHT22;38837;48.916;2.336;2024-03-06T03:05:38;24.50;32.90
52973;DHT22;38837;48.916;2.336;2024-03-06T03:07:40;24.50;32.90
52973;DHT22;38837;48.916;2.336;2024-03-06T03:09:43;24.60;32.80
52973;DHT22;38837;48.916;2.336;2024-03-06T03:11:45;24.60;32.70
52973;DHT22;38837;48.916;2.336;2024-03-06T03:13:47;24.70;32.60
52973;DHT22;38837;48.916;2.336;2024-03-06T03:15:49;24.70;32.50
52973;DHT22;38837;48.916;2.336;2024-03-06T03:17:52;24.70;32.60
52973;DHT22;38837;48.916;2.336;2024-03-06T03:19:54;24.60;32.60
52973;DHT22;38837;48.916;2.336;2024-03-06T03:21:57;24.60;32.70
52973;DHT22;38837;48.916;2.336;2024-03-06T03:23:59;24.60;32.70
52973;DHT22;38837;48.916;2.336;2024-03-06T03:26:01;24.50;32.80
52973;DHT22;38837;48.916;2.336;2024-03-06T03:28:05;24.50;32.90
52973;DHT22;38837;48.916;2.336;2024-03-06T03:30:08;24.60;32.90
52973;DHT22;38837;48.916;2.336;2024-03-06T03:32:10;24.60;32.80
52973;DHT22;38837;48.916;2.336;2024-03-06T03:34:12;24.60;32.70
52973;DHT22;38837;48.916;2.336;2024-03-06T03:36:14;24.70;32.70
52973;DHT22;38837;48.916;2.336;2024-03-06T03:38:16;24.70;32.60
52973;DHT22;38837;48.916;2.336;2024-03-06T03:40:18;24.70;32.60
52973;DHT22;38837;48.916;2.336;2024-03-06T03:42:21;24.60;32.60
52973;DHT22;38837;48.916;2.336;2024-03-06T03:44:23;24.60;32.70
52973;DHT22;38837;48.916;2.336;2024-03-06T03:46:25;24.50;32.70
52973;DHT22;38837;48.916;2.336;2024-03-06T03:48:27;24.50;32.70
52973;DHT22;38837;48.916;2.336;2024-03-06T03:50:29;24.50;32.80
52973;DHT22;38837;48.916;2.336;2024-03-06T03:52:34;24.50;32.90
52973;DHT22;38837;48.916;2.336;2024-03-06T03:54:36;24.50;32.90
52973;DHT22;38837;48.916;2.336;2024-03-06T03:56:38;24.60;32.90
52973;DHT22;38837;48.916;2.336;2024-03-06T03:58:40;24.60;32.80
52973;DHT22;38837;48.916;2.336;2024-03-06T04:00:42;24.70;32.70
52973;DHT22;38837;48.916;2.336;2024-03-06T04:02:44;24.60;32.60
52973;DHT22;38837;48.916;2.336;2024-03-06T04:04:46;24.60;32.60
52973;DHT22;38837;48.916;2.336;2024-03-06T04:06:48;24.60;32.70
52973;DHT22;38837;48.916;2.336;2024-03-06T04:08:50;24.50;32.70
52973;DHT22;38837;48.916;2.336;2024-03-06T04:10:52;24.50;32.80
52973;DHT22;38837;48.916;2.336;2024-03-06T04:12:54;24.50;32.80
52973;DHT22;38837;48.916;2.336;2024-03-06T04:14:56;24.50;32.90
52973;DHT22;38837;48.916;2.336;2024-03-06T04:16:58;24.50;32.90
52973;DHT22;38837;48.916;2.336;2024-03-06T04:19:00;24.60;32.90
52973;DHT22;38837;48.916;2.336;2024-03-06T04:21:06;24.60;32.80
52973;DHT22;38837;48.916;2.336;2024-03-06T04:23:08;24.70;32.70
52973;DHT22;38837;48.916;2.336;2024-03-06T04:25:10;24.70;32.60
52973;DHT22;38837;48.916;2.336;2024-03-06T04:27:12;24.70;32.60
52973;DHT22;38837;48.916;2.336;2024-03-06T04:29:14;24.60;32.60
52973;DHT22;38837;48.916;2.336;2024-03-06T04:31:16;24.60;32.70
52973;DHT22;38837;48.916;2.336;2024-03-06T04:33:18;24.50;32.70
52973;DHT22;38837;48.916;2.336;2024-03-06T04:35:20;24.50;32.70
52973;DHT22;38837;48.916;2.336;2024-03-06T04:37:22;24.50;32.80
52973;DHT22;38837;48.916;2.336;2024-03-06T04:39:23;24.50;32.90
52973;DHT22;38837;48.916;2.336;2024-03-06T04:41:25;24.50;32.80
52973;DHT22;38837;48.916;2.336;2024-03-06T04:43:27;24.60;32.80
52973;DHT22;38837;48.916;2.336;2024-03-06T04:45:29;24.70;32.70
52973;DHT22;38837;48.916;2.336;2024-03-06T04:47:31;24.70;32.60
52973;DHT22;38837;48.916;2.336;2024-03-06T04:49:33;24.70;32.50
52973;DHT22;38837;48.916;2.336;2024-03-06T04:51:38;24.70;32.50
52973;DHT22;38837;48.916;2.336;2024-03-06T04:53:40;24.60;32.50
52973;DHT22;38837;48.916;2.336;2024-03-06T04:55:44;24.60;32.60
52973;DHT22;38837;48.916;2.336;2024-03-06T04:57:45;24.50;32.60
52973;DHT22;38837;48.916;2.336;2024-03-06T04:59:47;24.50;32.60
52973;DHT22;38837;48.916;2.336;2024-03-06T05:01:49;24.50;32.70
52973;DHT22;38837;48.916;2.336;2024-03-06T05:03:51;24.50;32.80
52973;DHT22;38837;48.916;2.336;2024-03-06T05:06:11;24.50;32.70
52973;DHT22;38837;48.916;2.336;2024-03-06T05:08:31;24.60;32.70
52973;DHT22;38837;48.916;2.336;2024-03-06T05:10:50;24.60;32.60
52973;DHT22;38837;48.916;2.336;2024-03-06T05:13:10;24.70;32.50
52973;DHT22;38837;48.916;2.336;2024-03-06T05:15:29;24.70;32.50
52973;DHT22;38837;48.916;2.336;2024-03-06T05:17:49;24.60;32.50
52973;DHT22;38837;48.916;2.336;2024-03-06T05:20:08;24.60;32.60
52973;DHT22;38837;48.916;2.336;2024-03-06T05:22:28;24.50;32.60
52973;DHT22;38837;48.916;2.336;2024-03-06T05:24:47;24.40;32.70
52973;DHT22;38837;48.916;2.336;2024-03-06T05:27:06;24.50;32.80
52973;DHT22;38837;48.916;2.336;2024-03-06T05:29:27;24.50;32.80
52973;DHT22;38837;48.916;2.336;2024-03-06T05:31:46;24.60;32.70
52973;DHT22;38837;48.916;2.336;2024-03-06T05:34:05;24.60;32.60
52973;DHT22;38837;48.916;2.336;2024-03-06T05:36:25;24.70;32.50
52973;DHT22;38837;48.916;2.336;2024-03-06T05:38:45;24.70;32.40
52973;DHT22;38837;48.916;2.336;2024-03-06T05:41:04;24.60;32.40
52973;DHT22;38837;48.916;2.336;2024-03-06T05:43:24;24.60;32.50
52973;DHT22;38837;48.916;2.336;2024-03-06T05:45:43;24.50;32.60
52973;DHT22;38837;48.916;2.336;2024-03-06T05:48:03;24.50;32.70
52973;DHT22;38837;48.916;2.336;2024-03-06T05:50:23;24.50;32.80
52973;DHT22;38837;48.916;2.336;2024-03-06T05:52:42;24.50;32.70
52973;DHT22;38837;48.916;2.336;2024-03-06T05:55:02;24.60;32.70
52973;DHT22;38837;48.916;2.336;2024-03-06T05:57:23;24.60;32.60
52973;DHT22;38837;48.916;2.336;2024-03-06T05:59:42;24.70;32.50
52973;DHT22;38837;48.916;2.336;2024-03-06T06:01:44;24.70;32.40
52973;DHT22;38837;48.916;2.336;2024-03-06T06:03:46;24.60;32.40
52973;DHT22;38837;48.916;2.336;2024-03-06T06:05:48;24.50;32.50
52973;DHT22;38837;48.916;2.336;2024-03-06T06:07:51;24.50;32.60
52973;DHT22;38837;48.916;2.336;2024-03-06T06:09:53;24.50;32.60
52973;DHT22;38837;48.916;2.336;2024-03-06T06:11:55;24.40;32.60
52973;DHT22;38837;48.916;2.336;2024-03-06T06:13:57;24.40;32.70
52973;DHT22;38837;48.916;2.336;2024-03-06T06:15:58;24.50;32.70
52973;DHT22;38837;48.916;2.336;2024-03-06T06:18:00;24.60;32.60
52973;DHT22;38837;48.916;2.336;2024-03-06T06:20:05;24.60;32.60
52973;DHT22;38837;48.916;2.336;2024-03-06T06:22:11;24.60;32.40
52973;DHT22;38837;48.916;2.336;2024-03-06T06:24:14;24.70;32.40
52973;DHT22;38837;48.916;2.336;2024-03-06T06:26:16;24.60;32.30
52973;DHT22;38837;48.916;2.336;2024-03-06T06:28:19;24.60;32.40
52973;DHT22;38837;48.916;2.336;2024-03-06T06:30:21;24.50;32.40
52973;DHT22;38837;48.916;2.336;2024-03-06T06:32:22;24.50;32.50
52973;DHT22;38837;48.916;2.336;2024-03-06T06:34:24;24.50;32.60
52973;DHT22;38837;48.916;2.336;2024-03-06T06:36:29;24.40;32.60
52973;DHT22;38837;48.916;2.336;2024-03-06T06:38:31;24.50;32.60
52973;DHT22;38837;48.916;2.336;2024-03-06T06:40:33;24.50;32.60
52973;DHT22;38837;48.916;2.336;2024-03-06T06:42:35;24.60;32.50
52973;DHT22;38837;48.916;2.336;2024-03-06T06:44:40;24.60;32.40
52973;DHT22;38837;48.916;2.336;2024-03-06T06:46:43;24.60;32.40
52973;DHT22;38837;48.916;2.336;2024-03-06T06:48:45;24.70;32.40
52973;DHT22;38837;48.916;2.336;2024-03-06T06:50:47;24.70;32.30
52973;DHT22;38837;48.916;2.336;2024-03-06T06:52:49;24.60;32.40
52973;DHT22;38837;48.916;2.336;2024-03-06T06:54:51;24.50;32.40
52973;DHT22;38837;48.916;2.336;2024-03-06T06:56:53;24.50;32.50
52973;DHT22;38837;48.916;2.336;2024-03-06T06:58:55;24.50;32.50
52973;DHT22;38837;48.916;2.336;2024-03-06T07:00:58;24.40;32.60
52973;DHT22;38837;48.916;2.336;2024-03-06T07:03:00;24.40;32.50
52973;DHT22;38837;48.916;2.336;2024-03-06T07:05:02;24.50;32.50
52973;DHT22;38837;48.916;2.336;2024-03-06T07:07:06;24.60;32.50
52973;DHT22;38837;48.916;2.336;2024-03-06T07:09:08;24.60;32.40
52973;DHT22;38837;48.916;2.336;2024-03-06T07:11:11;24.60;32.30
52973;DHT22;38837;48.916;2.336;2024-03-06T07:13:13;24.60;32.30
52973;DHT22;38837;48.916;2.336;2024-03-06T07:15:14;24.60;32.40
52973;DHT22;38837;48.916;2.336;2024-03-06T07:17:16;24.50;32.30
52973;DHT22;38837;48.916;2.336;2024-03-06T07:19:18;24.50;32.40
52973;DHT22;38837;48.916;2.336;2024-03-06T07:21:20;24.50;32.40
52973;DHT22;38837;48.916;2.336;2024-03-06T07:23:23;24.50;32.50
52973;DHT22;38837;48.916;2.336;2024-03-06T07:25:25;24.50;32.50
52973;DHT22;38837;48.916;2.336;2024-03-06T07:27:27;24.50;32.50
52973;DHT22;38837;48.916;2.336;2024-03-06T07:29:29;24.50;32.50
52973;DHT22;38837;48.916;2.336;2024-03-06T07:31:31;24.60;32.40
52973;DHT22;38837;48.916;2.336;2024-03-06T07:33:33;24.70;32.40
52973;DHT22;38837;48.916;2.336;2024-03-06T07:35:35;24.70;32.20
52973;DHT22;38837;48.916;2.336;2024-03-06T07:37:38;24.70;32.30
52973;DHT22;38837;48.916;2.336;2024-03-06T07:39:40;24.60;32.30
52973;DHT22;38837;48.916;2.336;2024-03-06T07:41:42;24.50;32.30
52973;DHT22;38837;48.916;2.336;2024-03-06T07:43:43;24.50;32.40
52973;DHT22;38837;48.916;2.336;2024-03-06T07:45:45;24.40;32.40
52973;DHT22;38837;48.916;2.336;2024-03-06T07:47:49;24.40;32.50
52973;DHT22;38837;48.916;2.336;2024-03-06T07:49:51;24.50;32.50
52973;DHT22;38837;48.916;2.336;2024-03-06T07:51:53;24.50;32.50
52973;DHT22;38837;48.916;2.336;2024-03-06T07:53:55;24.60;32.40
52973;DHT22;38837;48.916;2.336;2024-03-06T07:55:59;24.60;32.30
52973;DHT22;38837;48.916;2.336;2024-03-06T07:58:01;24.70;32.20
52973;DHT22;38837;48.916;2.336;2024-03-06T08:00:03;24.70;32.20
52973;DHT22;38837;48.916;2.336;2024-03-06T08:02:16;24.60;32.20
52973;DHT22;38837;48.916;2.336;2024-03-06T08:04:18;24.50;32.20
52973;DHT22;38837;48.916;2.336;2024-03-06T08:06:20;24.50;32.40
52973;DHT22;38837;48.916;2.336;2024-03-06T08:08:22;24.50;32.70
52973;DHT22;38837;48.916;2.336;2024-03-06T08:10:24;24.50;32.50
52973;DHT22;38837;48.916;2.336;2024-03-06T08:12:26;24.50;32.50
52973;DHT22;38837;48.916;2.336;2024-03-06T08:14:28;24.50;32.50
52973;DHT22;38837;48.916;2.336;2024-03-06T08:16:30;24.50;32.40
52973;DHT22;38837;48.916;2.336;2024-03-06T08:18:36;24.60;32.40
52973;DHT22;38837;48.916;2.336;2024-03-06T08:20:38;24.70;32.30
52973;DHT22;38837;48.916;2.336;2024-03-06T08:22:42;24.70;32.20
52973;DHT22;38837;48.916;2.336;2024-03-06T08:24:44;24.60;32.20
52973;DHT22;38837;48.916;2.336;2024-03-06T08:26:46;24.60;32.20
52973;DHT22;38837;48.916;2.336;2024-03-06T08:28:50;24.50;32.30
52973;DHT22;38837;48.916;2.336;2024-03-06T08:30:53;24.50;32.40
52973;DHT22;38837;48.916;2.336;2024-03-06T08:32:55;24.50;32.50
52973;DHT22;38837;48.916;2.336;2024-03-06T08:34:57;24.50;32.50
52973;DHT22;38837;48.916;2.336;2024-03-06T08:36:59;24.50;32.50
52973;DHT22;38837;48.916;2.336;2024-03-06T08:39:01;24.50;32.50
52973;DHT22;38837;48.916;2.336;2024-03-06T08:41:03;24.60;32.50
52973;DHT22;38837;48.916;2.336;2024-03-06T08:43:05;24.60;32.40
52973;DHT22;38837;48.916;2.336;2024-03-06T08:45:07;24.70;32.30
52973;DHT22;38837;48.916;2.336;2024-03-06T08:47:09;24.80;32.30
52973;DHT22;38837;48.916;2.336;2024-03-06T08:49:11;24.70;32.20
52973;DHT22;38837;48.916;2.336;2024-03-06T08:51:13;24.60;32.20
52973;DHT22;38837;48.916;2.336;2024-03-06T08:53:16;24.60;32.40
52973;DHT22;38837;48.916;2.336;2024-03-06T08:55:18;24.50;32.40
52973;DHT22;38837;48.916;2.336;2024-03-06T08:57:20;24.50;32.50
52973;DHT22;38837;48.916;2.336;2024-03-06T08:59:24;24.50;32.50
52973;DHT22;38837;48.916;2.336;2024-03-06T09:01:26;24.50;32.50
52973;DHT22;38837;48.916;2.336;2024-03-06T09:03:28;24.50;32.50
52973;DHT22;38837;48.916;2.336;2024-03-06T09:05:30;24.60;32.40
52973;DHT22;38837;48.916;2.336;2024-03-06T09:07:32;24.60;32.30
52973;DHT22;38837;48.916;2.336;2024-03-06T09:09:39;24.70;32.20
52973;DHT22;38837;48.916;2.336;2024-03-06T09:11:41;24.70;32.10
52973;DHT22;38837;48.916;2.336;2024-03-06T09:13:46;24.80;32.70
52973;DHT22;38837;48.916;2.336;2024-03-06T09:15:48;25.00;33.40
52973;DHT22;38837;48.916;2.336;2024-03-06T09:17:49;25.00;34.20
52973;DHT22;38837;48.916;2.336;2024-03-06T09:19:52;25.00;34.90
52973;DHT22;38837;48.916;2.336;2024-03-06T09:22:09;24.90;35.40
52973;DHT22;38837;48.916;2.336;2024-03-06T09:24:10;24.60;35.90
52973;DHT22;38837;48.916;2.336;2024-03-06T09:26:12;24.90;33.90
52973;DHT22;38837;48.916;2.336;2024-03-06T09:28:14;25.00;32.70
52973;DHT22;38837;48.916;2.336;2024-03-06T09:30:16;25.10;32.80
52973;DHT22;38837;48.916;2.336;2024-03-06T09:32:18;25.10;32.50
52973;DHT22;38837;48.916;2.336;2024-03-06T09:34:21;25.10;32.40
52973;DHT22;38837;48.916;2.336;2024-03-06T09:36:24;25.00;32.30
52973;DHT22;38837;48.916;2.336;2024-03-06T09:38:27;24.90;32.20
52973;DHT22;38837;48.916;2.336;2024-03-06T09:40:29;24.80;32.20
52973;DHT22;38837;48.916;2.336;2024-03-06T09:42:31;24.70;32.10
52973;DHT22;38837;48.916;2.336;2024-03-06T09:44:32;24.60;32.20
52973;DHT22;38837;48.916;2.336;2024-03-06T09:46:35;24.60;32.20
52973;DHT22;38837;48.916;2.336;2024-03-06T09:48:47;24.60;32.10
52973;DHT22;38837;48.916;2.336;2024-03-06T09:50:51;24.60;32.10
52973;DHT22;38837;48.916;2.336;2024-03-06T09:52:56;24.70;32.00
52973;DHT22;38837;48.916;2.336;2024-03-06T09:54:59;24.80;31.90
52973;DHT22;38837;48.916;2.336;2024-03-06T09:57:02;24.80;32.30
52973;DHT22;38837;48.916;2.336;2024-03-06T09:59:04;24.80;31.90
52973;DHT22;38837;48.916;2.336;2024-03-06T10:01:07;24.70;32.30
52973;DHT22;38837;48.916;2.336;2024-03-06T10:03:09;24.60;32.30
52973;DHT22;38837;48.916;2.336;2024-03-06T10:05:22;24.50;32.30
52973;DHT22;38837;48.916;2.336;2024-03-06T10:07:25;24.40;32.10
52973;DHT22;38837;48.916;2.336;2024-03-06T10:09:28;24.40;32.20
52973;DHT22;38837;48.916;2.336;2024-03-06T10:11:37;24.40;32.00
52973;DHT22;38837;48.916;2.336;2024-03-06T10:13:39;24.50;32.00
52973;DHT22;38837;48.916;2.336;2024-03-06T10:15:41;24.50;31.80
52973;DHT22;38837;48.916;2.336;2024-03-06T10:17:43;24.50;31.80
52973;DHT22;38837;48.916;2.336;2024-03-06T10:19:49;24.50;31.70
52973;DHT22;38837;48.916;2.336;2024-03-06T10:21:54;24.50;31.80
52973;DHT22;38837;48.916;2.336;2024-03-06T10:23:57;24.40;31.80
52973;DHT22;38837;48.916;2.336;2024-03-06T10:25:59;24.30;31.90
52973;DHT22;38837;48.916;2.336;2024-03-06T10:28:08;24.30;32.00
52973;DHT22;38837;48.916;2.336;2024-03-06T10:30:10;24.20;32.00
52973;DHT22;38837;48.916;2.336;2024-03-06T10:32:18;24.20;32.30
52973;DHT22;38837;48.916;2.336;2024-03-06T10:34:26;24.20;31.90
52973;DHT22;38837;48.916;2.336;2024-03-06T10:36:32;24.30;31.90
52973;DHT22;38837;48.916;2.336;2024-03-06T10:38:36;24.40;31.60
52973;DHT22;38837;48.916;2.336;2024-03-06T10:40:42;24.50;31.50
52973;DHT22;38837;48.916;2.336;2024-03-06T10:42:45;24.60;31.40
52973;DHT22;38837;48.916;2.336;2024-03-06T10:44:52;24.50;31.50
52973;DHT22;38837;48.916;2.336;2024-03-06T10:46:59;24.50;31.60
52973;DHT22;38837;48.916;2.336;2024-03-06T10:49:04;24.40;31.50
52973;DHT22;38837;48.916;2.336;2024-03-06T10:51:07;24.30;32.00
52973;DHT22;38837;48.916;2.336;2024-03-06T10:53:12;24.40;32.70
52973;DHT22;38837;48.916;2.336;2024-03-06T10:55:18;24.50;32.60
52973;DHT22;38837;48.916;2.336;2024-03-06T10:57:20;24.50;32.60
52973;DHT22;38837;48.916;2.336;2024-03-06T10:59:25;24.30;32.60
52973;DHT22;38837;48.916;2.336;2024-03-06T11:01:30;24.50;32.60
52973;DHT22;38837;48.916;2.336;2024-03-06T11:03:34;24.50;32.30
52973;DHT22;38837;48.916;2.336;2024-03-06T11:05:38;24.50;32.60
52973;DHT22;38837;48.916;2.336;2024-03-06T11:07:41;24.60;32.40
52973;DHT22;38837;48.916;2.336;2024-03-06T11:09:43;24.60;32.30
52973;DHT22;38837;48.916;2.336;2024-03-06T11:11:52;24.60;32.10
52973;DHT22;38837;48.916;2.336;2024-03-06T11:13:55;24.60;32.40
52973;DHT22;38837;48.916;2.336;2024-03-06T11:16:01;24.50;32.30
52973;DHT22;38837;48.916;2.336;2024-03-06T11:20:33;24.50;32.30
52973;DHT22;38837;48.916;2.336;2024-03-06T11:25:00;24.70;32.00
52973;DHT22;38837;48.916;2.336;2024-03-06T11:27:04;24.60;32.00
52973;DHT22;38837;48.916;2.336;2024-03-06T11:29:07;24.70;31.90
52973;DHT22;38837;48.916;2.336;2024-03-06T11:31:10;24.50;31.60
52973;DHT22;38837;48.916;2.336;2024-03-06T11:33:20;24.50;31.90
52973;DHT22;38837;48.916;2.336;2024-03-06T11:35:22;24.50;31.80
52973;DHT22;38837;48.916;2.336;2024-03-06T11:37:24;24.50;31.70
52973;DHT22;38837;48.916;2.336;2024-03-06T11:39:39;24.30;32.10
52973;DHT22;38837;48.916;2.336;2024-03-06T11:43:45;24.20;31.80
52973;DHT22;38837;48.916;2.336;2024-03-06T11:45:48;24.30;31.40
52973;DHT22;38837;48.916;2.336;2024-03-06T11:48:00;24.40;31.20
52973;DHT22;38837;48.916;2.336;2024-03-06T11:50:03;24.60;31.00
52973;DHT22;38837;48.916;2.336;2024-03-06T11:52:10;24.90;31.20
52973;DHT22;38837;48.916;2.336;2024-03-06T11:54:17;24.80;30.50
52973;DHT22;38837;48.916;2.336;2024-03-06T11:56:25;24.80;30.60
52973;DHT22;38837;48.916;2.336;2024-03-06T11:58:27;24.80;30.80
52973;DHT22;38837;48.916;2.336;2024-03-06T12:00:32;24.70;30.60
52973;DHT22;38837;48.916;2.336;2024-03-06T12:02:36;24.70;30.60
52973;DHT22;38837;48.916;2.336;2024-03-06T12:04:38;24.50;30.80
52973;DHT22;38837;48.916;2.336;2024-03-06T12:06:42;24.60;31.00
52973;DHT22;38837;48.916;2.336;2024-03-06T12:08:44;24.70;31.00
52973;DHT22;38837;48.916;2.336;2024-03-06T12:10:46;24.80;30.90
52973;DHT22;38837;48.916;2.336;2024-03-06T12:12:49;24.90;30.80
52973;DHT22;38837;48.916;2.336;2024-03-06T12:14:58;25.00;30.60
52973;DHT22;38837;48.916;2.336;2024-03-06T12:17:01;25.10;30.70
52973;DHT22;38837;48.916;2.336;2024-03-06T12:19:06;25.10;31.80
52973;DHT22;38837;48.916;2.336;2024-03-06T12:21:10;25.10;31.90
52973;DHT22;38837;48.916;2.336;2024-03-06T12:23:22;25.00;32.10
52973;DHT22;38837;48.916;2.336;2024-03-06T12:25:30;24.90;32.40
52973;DHT22;38837;48.916;2.336;2024-03-06T12:27:32;24.90;32.10
52973;DHT22;38837;48.916;2.336;2024-03-06T12:29:38;24.90;32.10
52973;DHT22;38837;48.916;2.336;2024-03-06T12:31:42;25.00;32.00
52973;DHT22;38837;48.916;2.336;2024-03-06T12:33:44;25.10;32.10
52973;DHT22;38837;48.916;2.336;2024-03-06T12:35:46;25.20;31.10
52973;DHT22;38837;48.916;2.336;2024-03-06T12:37:48;25.20;30.70
52973;DHT22;38837;48.916;2.336;2024-03-06T12:39:50;25.10;31.20
52973;DHT22;38837;48.916;2.336;2024-03-06T12:41:52;25.30;31.10
52973;DHT22;38837;48.916;2.336;2024-03-06T12:43:54;25.30;30.70
52973;DHT22;38837;48.916;2.336;2024-03-06T12:45:57;25.30;30.70
52973;DHT22;38837;48.916;2.336;2024-03-06T12:48:03;25.20;30.70
52973;DHT22;38837;48.916;2.336;2024-03-06T12:50:06;25.20;31.20
52973;DHT22;38837;48.916;2.336;2024-03-06T12:52:09;25.20;30.90
52973;DHT22;38837;48.916;2.336;2024-03-06T12:54:11;25.30;30.80
52973;DHT22;38837;48.916;2.336;2024-03-06T12:56:13;25.40;30.60
52973;DHT22;38837;48.916;2.336;2024-03-06T12:58:15;25.60;31.90
52973;DHT22;38837;48.916;2.336;2024-03-06T13:00:17;25.70;31.40
52973;DHT22;38837;48.916;2.336;2024-03-06T13:02:20;25.80;31.30
52973;DHT22;38837;48.916;2.336;2024-03-06T13:04:22;25.80;30.40
52973;DHT22;38837;48.916;2.336;2024-03-06T13:06:24;25.80;30.90
52973;DHT22;38837;48.916;2.336;2024-03-06T13:08:26;25.70;31.30
52973;DHT22;38837;48.916;2.336;2024-03-06T13:10:28;25.60;30.60